Flight Track Log - Related Links

Times and Time Zones

All times are in EDT time to prevent confusion due to time zone crossing. See the BJS542 flight status page for this flight to view local times or setup timezone preferences in your user account.

Time Position Orientation Groundspeed Altitude Reporting Facility
EDT Latitude Longitude Course Direction KTS MPH feet Rate Location/Type
Fri 10:43:47 AM 32.8333 -96.8167 140° Southeast 198 228 1,400  Level Dallas / Fort Worth TRACON
Fri 10:45:05 AM 32.7667 -96.7500 140° Southeast 281 323 4,400 2,696 Climbing Dallas / Fort Worth TRACON
Fri 10:46:05 AM 32.6833 -96.7333 170° South 289 333 7,600 2,691 Climbing Dallas / Fort Worth TRACON
Fri 10:48:19 AM 32.6486 -96.9125 257° West 303 349 13,100 2,505 Climbing Fort Worth Center
Fri 10:49:19 AM 32.7056 -97.0233 301° West 339 390 15,700 2,450 Climbing Fort Worth Center
Fri 10:50:19 AM 32.7558 -97.1144 303° West 364 419 18,000 2,500 Climbing Fort Worth Center
Fri 10:51:19 AM 32.8186 -97.2281 303° West 370 426 20,700 2,450 Climbing Fort Worth Center
Fri 10:52:19 AM 32.8708 -97.3244 303° West 380 437 22,900 2,100 Climbing Fort Worth Center
Fri 10:53:19 AM 32.9378 -97.4506 302° West 394 453 24,900 1,850 Climbing Fort Worth Center
Fri 10:54:19 AM 32.9981 -97.5597 303° West 399 459 26,600 1,650 Climbing Fort Worth Center
Fri 10:55:19 AM 33.0586 -97.6761 302° West 405 466 28,200 1,450 Climbing Fort Worth Center
Fri 10:56:19 AM 33.1144 -97.8003 298° West 419 482 29,500 900 Climbing Fort Worth Center
Fri 10:57:19 AM 33.1558 -97.9369 290° West 426 490 30,000 900 Climbing Fort Worth Center
Fri 10:58:19 AM 33.2011 -98.0811 291° West 446 513 31,300 1,450 Climbing Fort Worth Center
Fri 10:59:19 AM 33.2461 -98.2233 291° West 463 533 32,900 1,550 Climbing Fort Worth Center
Fri 11:00:19 AM 33.2911 -98.3653 291° West 463 533 34,400 1,450 Climbing Fort Worth Center
Fri 11:01:19 AM 33.3339 -98.5025 290° West 451 519 35,800 1,300 Climbing Fort Worth Center
Fri 11:02:19 AM 33.3722 -98.6272 290° West 444 511 37,000 1,350 Climbing Fort Worth Center
Fri 11:03:19 AM 33.4167 -98.7697 291° West 452 520 38,500 1,250 Climbing Fort Worth Center
Fri 11:04:19 AM 33.4589 -98.9100 290° West 452 520 39,500 950 Climbing Fort Worth Center
Fri 11:05:19 AM 33.5011 -99.0500 290° West 452 520 40,400 800 Climbing Fort Worth Center
Fri 11:06:19 AM 33.5450 -99.1931 290° West 452 520 41,100 700 Climbing Fort Worth Center
Fri 11:07:19 AM 33.5889 -99.3386 290° West 452 520 41,800 700 Climbing Fort Worth Center
Fri 11:08:19 AM 33.6450 -99.4694 297° West 452 520 42,500 600 Climbing Fort Worth Center
Fri 11:09:19 AM 33.7494 -99.5869 317° Northwest 451 519 43,000 250 Climbing Fort Worth Center
Fri 11:10:19 AM 33.8417 -99.6942 316° Northwest 451 519 43,000  Level Fort Worth Center
Fri 11:11:19 AM 33.9356 -99.7992 317° Northwest 462 532 43,000  Level Fort Worth Center
Fri 11:12:19 AM 34.0294 -99.9044 317° Northwest 462 532 43,000  Level Fort Worth Center
Fri 11:13:19 AM 34.1233 -100.0103 317° Northwest 462 532 43,000  Level Fort Worth Center
Fri 11:15:00 AM 34.2783 -100.1836 317° Northwest 454 522 43,000  Level Albuquerque Center
Fri 11:16:02 AM 34.3689 -100.2869 317° Northwest 450 518 43,000  Level Albuquerque Center
Fri 11:17:04 AM 34.4442 -100.4081 307° West 450 518 43,000  Level Albuquerque Center
Fri 11:18:07 AM 34.5197 -100.5292 307° West 451 519 43,000  Level Albuquerque Center
Fri 11:19:09 AM 34.5953 -100.6508 307° West 452 520 43,000  Level Albuquerque Center
Fri 11:20:11 AM 34.6706 -100.7728 307° West 452 520 43,000  Level Albuquerque Center
Fri 11:21:13 AM 34.7617 -100.9192 307° West 453 521 43,000  Level Albuquerque Center
Fri 11:22:15 AM 34.8356 -101.0400 307° West 448 516 43,000  Level Albuquerque Center
Fri 11:23:17 AM 34.9181 -101.1542 311° West 448 516 43,000  Level Albuquerque Center
Fri 11:24:19 AM 35.0011 -101.2672 312° West 449 517 43,000  Level Albuquerque Center
Fri 11:25:21 AM 35.0825 -101.3783 312° West 453 521 43,000  Level Albuquerque Center
Fri 11:26:23 AM 35.1853 -101.5181 312° West 457 526 43,000  Level Albuquerque Center
Fri 11:27:25 AM 35.2669 -101.6325 311° West 452 520 43,000  Level Albuquerque Center
Fri 11:28:27 AM 35.3481 -101.7458 311° West 443 510 43,000  Level Albuquerque Center
Fri 11:29:29 AM 35.4294 -101.8589 311° West 440 506 43,000  Level Albuquerque Center
Fri 11:30:31 AM 35.5161 -101.9842 310° West 438 504 43,000  Level Albuquerque Center
Fri 11:31:33 AM 35.5936 -102.0944 311° West 432 497 43,000  Level Albuquerque Center
Fri 11:32:35 AM 35.6731 -102.2061 311° West 433 498 43,000  Level Albuquerque Center
Fri 11:33:37 AM 35.7517 -102.3181 311° West 434 499 43,000  Level Albuquerque Center
Fri 11:34:39 AM 35.8303 -102.4300 311° West 433 498 43,000  Level Albuquerque Center
Fri 11:35:41 AM 35.9094 -102.5422 311° West 433 498 43,000  Level Albuquerque Center
Fri 11:36:43 AM 36.0017 -102.6769 310° West 431 496 43,000  Level Albuquerque Center
Fri 11:37:45 AM 36.0792 -102.7883 311° West 429 494 43,000  Level Albuquerque Center
Fri 11:38:47 AM 36.1561 -102.8994 311° West 427 491 43,000  Level Albuquerque Center
Fri 11:39:49 AM 36.2419 -103.0231 311° West 425 489 43,000  Level Albuquerque Center
Fri 11:40:51 AM 36.3178 -103.1347 310° West 422 486 43,000  Level Albuquerque Center
Fri 11:41:54 AM 36.3953 -103.2461 311° West 423 487 43,000  Level Albuquerque Center
Fri 11:42:56 AM 36.4708 -103.3572 310° West 420 483 43,000  Level Albuquerque Center
Fri 11:43:58 AM 36.5467 -103.4711 310° West 424 488 43,000  Level Albuquerque Center
Fri 11:45:00 AM 36.6222 -103.5836 310° West 422 486 43,000  Level Albuquerque Center
Fri 11:46:02 AM 36.7058 -103.7050 311° West 418 481 43,000  Level Albuquerque Center
Fri 11:47:04 AM 36.7783 -103.8114 310° West 418 481 43,000  Level Albuquerque Center
Fri 11:48:06 AM 36.8619 -103.9358 310° West 418 481 43,000  Level Albuquerque Center
Fri 11:49:08 AM 36.9325 -104.0419 310° West 416 479 43,000  Level Albuquerque Center
Fri 11:50:10 AM 37.0158 -104.1667 310° West 416 479 43,000  Level Albuquerque Center
Fri 11:51:12 AM 37.0875 -104.2756 310° West 419 482 43,000  Level Albuquerque Center
Fri 11:52:06 AM 37.1583 -104.3844 309° West 420 483 43,000  Level Denver Center
Fri 11:53:08 AM 37.2306 -104.4939 310° West 423 487 43,000 -629 Level Denver Center
Fri 11:54:10 AM 37.3139 -104.6211 309° West 420 483 41,700 -1,355 Descending Denver Center
Fri 11:55:12 AM 37.3861 -104.7308 310° West 421 484 40,200 -1,403 Descending Denver Center
Fri 11:56:14 AM 37.4600 -104.8422 310° West 428 493 38,800 -1,500 Descending Denver Center
Fri 11:57:16 AM 37.5458 -104.9744 309° West 434 499 37,100 -1,548 Descending Denver Center
Fri 11:58:18 AM 37.6186 -105.0853 310° West 429 494 35,600 -1,403 Descending Denver Center
Fri 11:59:20 AM 37.7061 -105.2214 309° West 442 509 34,200 -774 Descending Denver Center
Fri 12:00:22 PM 37.7814 -105.3356 310° West 443 510 34,000 -88 Descending Denver Center
Fri 12:01:36 PM 37.8683 -105.4722 309° West 446 513 34,000 -131 Level Denver Center
Fri 12:02:39 PM 37.9544 -105.6089 309° West 445 512 33,700 -1,584 Descending Denver Center
Fri 12:03:41 PM 38.0431 -105.7469 309° West 450 518 30,700 -2,565 Descending Denver Center
Fri 12:04:43 PM 38.1164 -105.8656 308° West 447 514 28,400 -1,645 Descending Denver Center
Fri 12:05:45 PM 38.2042 -106.0006 310° West 443 510 27,300 -968 Descending Denver Center
Fri 12:06:47 PM 38.2753 -106.1169 308° West 436 502 26,400 -629 Descending Denver Center
Fri 12:07:49 PM 38.3572 -106.2475 309° West 430 495 26,000 -194 Descending Denver Center
Fri 12:08:51 PM 38.4303 -106.3647 309° West 424 488 26,000 -484 Level Denver Center
Fri 12:09:53 PM 38.5125 -106.4758 313° West 429 494 25,000 -1,210 Descending Denver Center
Fri 12:10:55 PM 38.6250 -106.5358 337° Northwest 435 501 23,500 -1,452 Descending Denver Center
Fri 12:11:57 PM 38.7333 -106.5828 341° North 416 479 22,000 -1,392 Descending Denver Center
Fri 12:13:00 PM 38.8447 -106.6097 349° North 406 467 20,600 -1,584 Descending Denver Center
Fri 12:14:02 PM 38.9792 -106.6517 346° North 413 475 18,700 -1,324 Descending Denver Center
Fri 12:15:16 PM 39.0825 -106.6994 340° North 401 461 17,600 -1,147 Descending Denver Center
Fri 12:16:18 PM 39.1881 -106.7594 336° Northwest 354 407 16,100 -1,113 Descending Denver Center
Fri 12:17:20 PM 39.2650 -106.8039 336° Northwest 315 362 15,300 -1,065 Descending Denver Center
Fri 12:18:22 PM 39.3392 -106.8447 337° Northwest 295 339 13,900 -726 Descending Denver Center
Fri 12:19:24 PM 39.4072 -106.8806 338° Northwest 276 318 13,800 -480 Descending Denver Center
Fri 12:20:27 PM 39.4336 -106.9575 294° West 259 298 12,900 -1,152 Descending Denver Center
Fri 12:21:29 PM 39.3739 -106.9822 198° South 237 273 11,400 -1,306 Descending Denver Center
Fri 12:22:31 PM 39.3333 -106.9419 142° Southeast 205 236 10,200 -1,258 Descending Denver Center
Fri 12:23:33 PM 39.2942 -106.9092 147° Southeast 182 209 8,800 -1,016 Descending Denver Center
Fri 12:24:35 PM 39.2544 -106.8808 151° Southeast 167 192 8,100 -677 Descending Denver Center

Login

Don't have an account? Register now (free) for customized features, flight alerts, and more!